Portada
METAR-TAF:

METAR-TAF

Aeroports :

Bacău, Romania

latitud: 46-35N, longitud: 026-58E, altitud: 184 m

Observació

L'informe es va fer fa 32 minuts, a les 02:00 UTC
Vent 10 kt del Nord
Temperatura 17°C
Humitat 88%
Pressió 1012 hPa
Visibilitat 10 km o més
Escasses núvols a una alçada de 1500 ft
Cel ennuvolat a una alçada de 2500 ft
pluja

METAR: LRBC 160200Z 35010KT 9999 -RA FEW015 BKN025 17/15 Q1012 R16/220295

Hora: 05:32 (02:32 UTC)

Pronòstic

L'informe es va fer fa 3 hores i 32 minuts, a les 23:00 UTC
Pronòstic vàlid del 16 a les 00 UTC al 16 a les 09 UTC
Vent 8 kt del Nord
Visibilitat 10 km o més
Cel ennuvolat a una alçada de 2500 ft
Temporalment
l' 16 a les 02 UTC al 16 a les 05 UTC
Visibilitat: 5000 m
Cel ennuvolat a una alçada de 1000 ft
Núvols disperses a una alçada de 3000 ft, Cumulonimbus.
xàfecs de pluja

TAF: LRBC 152300Z 1600/1609 35008KT 9999 BKN025 TEMPO 1602/1605 5000 -SHRA BKN010 SCT030CB

Observacions i pronòstics meteorològics de més de 4000 aeroports (METAR i TAF).

Les estacions disponibles són els punts grocs i vermells al mapa.

Posi el ratolí al punt desitjat per veure el nom de l'estació.

Feu clic per veure les observacions i els pronòstics meteorològics.

Per canviar el mapa: feu clic els botons verds amb una creu de color negre per apropar; al botó verd amb un guió per allunyar la imatge; o en les fletxes verdes per a mapes adjacents.


METAR-TAF: